createdAt,value
2018-02-14T00:00:33.083Z,99133.96
2018-02-14T00:03:00.772Z,99125.71
2018-02-14T00:05:28.400Z,99119.76
2018-02-14T00:07:55.977Z,99122.02
2018-02-14T00:10:23.560Z,99117.97
2018-02-14T00:12:51.186Z,99112.80
2018-02-14T00:15:18.771Z,99116.16
2018-02-14T00:17:46.334Z,99115.88
2018-02-14T00:20:13.954Z,99099.06
2018-02-14T00:22:41.527Z,99112.13
2018-02-14T00:25:09.160Z,99099.89
2018-02-14T00:27:36.805Z,99103.68
2018-02-14T00:30:04.370Z,99095.22
2018-02-14T00:32:31.938Z,99087.70
2018-02-14T00:34:59.497Z,99091.30
2018-02-14T00:37:27.186Z,99088.42
2018-02-14T00:39:54.815Z,99079.16
2018-02-14T00:42:22.377Z,99076.99
2018-02-14T00:44:49.950Z,99074.80
2018-02-14T00:47:17.573Z,99082.00
2018-02-14T00:49:45.212Z,99081.39
2018-02-14T00:52:12.769Z,99082.97
2018-02-14T00:54:40.446Z,99079.75
2018-02-14T00:57:08.005Z,99081.72
2018-02-14T00:59:35.635Z,99073.55
2018-02-14T01:02:03.192Z,99066.86
2018-02-14T01:04:30.830Z,99055.33
2018-02-14T01:06:58.466Z,99053.23
2018-02-14T01:09:26.102Z,99057.81
2018-02-14T01:11:53.786Z,99050.19
2018-02-14T01:14:21.362Z,99032.48
2018-02-14T01:16:48.923Z,99029.73
2018-02-14T01:19:17.331Z,99028.80
2018-02-14T01:21:50.903Z,99033.16
2018-02-14T01:24:18.534Z,99025.87
2018-02-14T01:26:46.113Z,99034.39
2018-02-14T01:29:13.734Z,99039.48
2018-02-14T01:31:41.308Z,99022.86
2018-02-14T01:34:08.878Z,99023.94
2018-02-14T01:36:36.518Z,99022.22
2018-02-14T01:39:04.154Z,99019.28
2018-02-14T01:41:31.782Z,99015.43
2018-02-14T01:43:59.350Z,99013.94
2018-02-14T01:46:26.974Z,99004.48
2018-02-14T01:48:54.623Z,99004.20
2018-02-14T01:51:22.175Z,98989.17
2018-02-14T01:53:49.746Z,98991.65
2018-02-14T01:56:17.306Z,98978.61
2018-02-14T01:58:44.877Z,98988.13
2018-02-14T02:01:12.456Z,98985.79
2018-02-14T02:03:40.135Z,98990.23
2018-02-14T02:06:07.697Z,98985.30
2018-02-14T02:08:35.325Z,98977.11
2018-02-14T02:11:02.962Z,98965.33
2018-02-14T02:13:30.526Z,98955.73
2018-02-14T02:15:58.098Z,98954.63
2018-02-14T02:18:25.647Z,98955.14
2018-02-14T02:20:53.283Z,98962.91
2018-02-14T02:23:20.917Z,98962.69
2018-02-14T02:25:48.468Z,98974.48
2018-02-14T02:28:16.039Z,98961.38
2018-02-14T02:30:43.673Z,98960.53
2018-02-14T02:33:11.228Z,98955.67
2018-02-14T02:35:38.843Z,98952.34
2018-02-14T02:38:06.469Z,98941.37
2018-02-14T02:40:34.187Z,98940.87
2018-02-14T02:43:01.763Z,98938.77
2018-02-14T02:45:29.403Z,98937.84
2018-02-14T02:47:56.965Z,98947.83
2018-02-14T02:50:24.548Z,98943.55
2018-02-14T02:52:52.126Z,98941.02
2018-02-14T02:55:19.826Z,98935.67
2018-02-14T02:57:47.385Z,98927.32
2018-02-14T03:00:15.039Z,98925.74
2018-02-14T03:02:42.587Z,98926.27
2018-02-14T03:05:10.210Z,98929.74
2018-02-14T03:07:38.018Z,98924.16
2018-02-14T03:10:05.595Z,98925.89
2018-02-14T03:12:33.228Z,98928.86
2018-02-14T03:15:00.850Z,98930.95
2018-02-14T03:17:28.472Z,98930.09
2018-02-14T03:19:56.038Z,98921.33
2018-02-14T03:22:23.606Z,98928.17
2018-02-14T03:24:51.246Z,98927.02
2018-02-14T03:27:18.806Z,98919.45
2018-02-14T03:29:46.431Z,98918.31
2018-02-14T03:32:13.991Z,98908.92
2018-02-14T03:34:41.545Z,98910.17
2018-02-14T03:37:09.169Z,98905.59
2018-02-14T03:39:36.799Z,98908.39
2018-02-14T03:42:04.370Z,98912.34
2018-02-14T03:44:31.928Z,98903.42
2018-02-14T03:46:59.486Z,98896.73
2018-02-14T03:49:27.035Z,98895.22
2018-02-14T03:51:54.602Z,98895.39
2018-02-14T03:54:22.177Z,98896.87
2018-02-14T03:56:49.795Z,98883.83
2018-02-14T03:59:17.416Z,98888.08
2018-02-14T04:01:44.993Z,98887.42
2018-02-14T04:04:12.543Z,98892.36
2018-02-14T04:06:40.171Z,98881.06
2018-02-14T04:09:07.790Z,98879.19
2018-02-14T04:11:35.464Z,98875.44
2018-02-14T04:14:03.028Z,98881.20
2018-02-14T04:16:30.597Z,98879.16
2018-02-14T04:18:58.233Z,98882.16
2018-02-14T04:21:25.803Z,98873.45
2018-02-14T04:23:53.474Z,98865.02
2018-02-14T04:26:21.078Z,98868.61
2018-02-14T04:28:48.642Z,98860.23
2018-02-14T04:31:16.276Z,98854.12
2018-02-14T04:33:43.834Z,98852.47
2018-02-14T04:36:11.462Z,98854.48
2018-02-14T04:38:39.012Z,98862.06
2018-02-14T04:41:06.623Z,98862.42
2018-02-14T04:43:34.198Z,98867.36
2018-02-14T04:46:01.766Z,98870.39
2018-02-14T04:48:29.396Z,98875.66
2018-02-14T04:50:57.019Z,98874.82
2018-02-14T04:53:24.690Z,98866.67
2018-02-14T04:55:52.295Z,98860.81
2018-02-14T04:58:19.889Z,98866.08
2018-02-14T05:00:47.472Z,98866.17
2018-02-14T05:03:15.030Z,98879.76
2018-02-14T05:05:42.676Z,98879.67
2018-02-14T05:08:10.239Z,98897.03
2018-02-14T05:10:37.898Z,98895.55
2018-02-14T05:13:05.461Z,98904.14
2018-02-14T05:15:33.025Z,98905.73
2018-02-14T05:18:00.607Z,98909.52
2018-02-14T05:20:28.231Z,98916.27
2018-02-14T05:22:55.956Z,98911.42
2018-02-14T05:25:23.583Z,98916.70
2018-02-14T05:27:51.153Z,98914.00
2018-02-14T05:30:18.811Z,98914.00
2018-02-14T05:32:46.362Z,98921.11
2018-02-14T05:35:14.079Z,98913.62
2018-02-14T05:37:41.638Z,98912.34
2018-02-14T05:40:09.198Z,98906.09
2018-02-14T05:42:36.766Z,98913.41
2018-02-14T05:45:04.331Z,98918.77
2018-02-14T05:47:31.942Z,98917.55
2018-02-14T05:49:59.516Z,98919.36
2018-02-14T05:52:27.088Z,98920.09
2018-02-14T05:54:54.727Z,98924.86
2018-02-14T05:57:22.290Z,98916.09
2018-02-14T05:59:49.862Z,98913.35
2018-02-14T06:02:17.433Z,98914.18
2018-02-14T06:04:45.062Z,98918.77
2018-02-14T06:07:12.682Z,98919.86
2018-02-14T06:09:40.306Z,98912.16
2018-02-14T06:12:07.873Z,98915.84
2018-02-14T06:14:35.434Z,98903.92
2018-02-14T06:17:03.070Z,98906.09
2018-02-14T06:19:30.652Z,98895.30
2018-02-14T06:21:58.288Z,98896.55
2018-02-14T06:24:25.953Z,98898.05
2018-02-14T06:26:53.514Z,98906.72
2018-02-14T06:29:21.085Z,98904.25
2018-02-14T06:31:48.654Z,98905.59
2018-02-14T06:34:16.234Z,98908.17
2018-02-14T06:36:43.846Z,98915.73
2018-02-14T06:39:11.527Z,98911.73
2018-02-14T06:41:39.093Z,98923.37
2018-02-14T06:44:06.690Z,98928.21
2018-02-14T06:46:34.326Z,98931.78
2018-02-14T06:49:01.956Z,98937.38
2018-02-14T06:51:29.526Z,98938.70
2018-02-14T06:53:57.131Z,98944.27
2018-02-14T06:56:24.706Z,98945.52
2018-02-14T06:58:52.286Z,98944.33
2018-02-14T07:01:19.902Z,98955.39
2018-02-14T07:03:47.532Z,98957.56
2018-02-14T07:06:15.094Z,98952.39
2018-02-14T07:08:42.673Z,98955.36
2018-02-14T07:11:10.250Z,98960.23
2018-02-14T07:13:37.809Z,98972.05
2018-02-14T07:16:05.371Z,98966.58
2018-02-14T07:18:33.042Z,98972.72
2018-02-14T07:21:00.608Z,98967.59
2018-02-14T07:23:30.971Z,98972.39
2018-02-14T07:25:58.552Z,98979.74
2018-02-14T07:28:26.170Z,98977.11
2018-02-14T07:30:53.740Z,98980.25
2018-02-14T07:33:21.299Z,98985.47
2018-02-14T07:35:48.921Z,98993.55
2018-02-14T07:38:16.482Z,98990.02
2018-02-14T07:40:44.132Z,98998.39
2018-02-14T07:43:11.744Z,98998.46
2018-02-14T07:45:39.362Z,99011.83
2018-02-14T07:48:06.952Z,99013.70
2018-02-14T07:50:34.511Z,99027.19
2018-02-14T07:53:02.140Z,99031.27
2018-02-14T07:55:29.762Z,99035.69
2018-02-14T07:57:57.378Z,99029.11
2018-02-14T08:00:24.987Z,99028.67
2018-02-14T08:02:52.590Z,99024.36
2018-02-14T08:05:20.157Z,99035.34
2018-02-14T08:07:47.714Z,99036.34
2018-02-14T08:10:15.403Z,99039.02
2018-02-14T08:12:43.039Z,99041.69
2018-02-14T08:15:10.681Z,99046.96
2018-02-14T08:17:38.362Z,99051.53
2018-02-14T08:20:05.930Z,99055.84
2018-02-14T08:22:33.515Z,99059.17
2018-02-14T08:25:01.095Z,99064.88
2018-02-14T08:27:28.778Z,99071.47
2018-02-14T08:29:56.363Z,99074.54
2018-02-14T08:32:24.022Z,99075.95
2018-02-14T08:34:51.663Z,99076.77
2018-02-14T08:37:19.287Z,99077.52
2018-02-14T08:39:46.858Z,99076.48
2018-02-14T08:42:14.461Z,99078.01
2018-02-14T08:44:42.071Z,99088.33
2018-02-14T08:47:09.706Z,99100.92
2018-02-14T08:49:37.334Z,99099.85
2018-02-14T08:52:04.962Z,99101.58
2018-02-14T08:54:32.536Z,99099.98
2018-02-14T08:57:00.114Z,99104.08
2018-02-14T08:59:27.694Z,99109.17
2018-02-14T09:01:55.346Z,99118.02
2018-02-14T09:04:22.910Z,99118.94
2018-02-14T09:06:50.544Z,99121.88
2018-02-14T09:09:18.115Z,99126.78
2018-02-14T09:11:45.747Z,99131.42
2018-02-14T09:14:13.323Z,99127.89
2018-02-14T09:16:40.897Z,99127.13
2018-02-14T09:19:08.587Z,99140.05
2018-02-14T09:21:36.146Z,99136.12
2018-02-14T09:24:03.713Z,99143.53
2018-02-14T09:26:31.353Z,99146.87
2018-02-14T09:28:58.974Z,99156.98
2018-02-14T09:31:26.546Z,99156.25
2018-02-14T09:33:54.116Z,99154.24
2018-02-14T09:36:21.797Z,99156.75
2018-02-14T09:38:49.415Z,99160.44
2018-02-14T09:41:17.037Z,99164.44
2018-02-14T09:43:44.658Z,99166.19
2018-02-14T09:46:12.273Z,99172.66
2018-02-14T09:48:39.902Z,99173.63
2018-02-14T09:51:07.457Z,99183.31
2018-02-14T09:53:35.073Z,99180.55
2018-02-14T09:56:02.632Z,99181.62
2018-02-14T09:58:30.193Z,99180.77
2018-02-14T10:00:57.782Z,99172.04
2018-02-14T10:03:25.398Z,99178.47
2018-02-14T10:05:53.041Z,99182.87
2018-02-14T10:08:20.604Z,99185.96
2018-02-14T10:10:49.081Z,99190.11
2018-02-14T10:13:16.642Z,99191.97
2018-02-14T10:15:44.207Z,99194.31
2018-02-14T10:18:11.844Z,99191.11
2018-02-14T10:20:39.409Z,99188.15
2018-02-14T10:23:06.988Z,99191.00
2018-02-14T10:25:34.593Z,99197.11
2018-02-14T10:28:02.196Z,99191.59
2018-02-14T10:30:29.772Z,99183.36
2018-02-14T10:32:57.385Z,99193.84
2018-02-14T10:35:24.950Z,99194.73
2018-02-14T10:37:52.611Z,99196.48
2018-02-14T10:40:20.303Z,99205.11
2018-02-14T10:42:47.843Z,99210.95
2018-02-14T10:45:15.556Z,99208.91
2018-02-14T10:47:43.164Z,99211.91
2018-02-14T10:50:10.760Z,99212.33
2018-02-14T10:52:38.336Z,99217.41
2018-02-14T10:55:05.911Z,99211.59
2018-02-14T10:57:33.478Z,99216.53
2018-02-14T11:00:01.091Z,99223.45
2018-02-14T11:05:32.931Z,99233.30
2018-02-14T11:08:00.537Z,99237.26
2018-02-14T11:10:28.107Z,99248.66
2018-02-14T11:12:55.672Z,99238.33
2018-02-14T11:15:23.300Z,99241.45
2018-02-14T11:17:50.866Z,99239.75
2018-02-14T11:20:18.486Z,99241.95
2018-02-14T11:22:46.043Z,99243.37
2018-02-14T11:25:13.720Z,99252.50
2018-02-14T11:27:41.286Z,99249.95
2018-02-14T11:30:08.942Z,99245.84
2018-02-14T11:32:36.512Z,99252.84
2018-02-14T11:35:04.126Z,99252.08
2018-02-14T11:37:31.691Z,99253.80
2018-02-14T11:39:59.336Z,99252.05
2018-02-14T11:42:27.016Z,99256.92
2018-02-14T11:44:54.578Z,99261.45
2018-02-14T11:47:22.164Z,99256.11
2018-02-14T11:49:49.799Z,99256.48
2018-02-14T11:52:17.354Z,99261.48
2018-02-14T11:54:45.019Z,99267.88
2018-02-14T11:57:12.574Z,99275.30
2018-02-14T11:59:40.335Z,99274.39
2018-02-14T12:02:07.888Z,99274.12
2018-02-14T12:04:35.455Z,99276.59
2018-02-14T12:07:03.091Z,99277.70
2018-02-14T12:09:30.646Z,99286.19
2018-02-14T12:11:58.268Z,99294.85
2018-02-14T12:14:25.900Z,99293.39
2018-02-14T12:16:53.578Z,99295.34
2018-02-14T12:19:21.139Z,99301.83
2018-02-14T12:21:48.704Z,99300.30
2018-02-14T12:24:16.334Z,99302.47
2018-02-14T12:26:43.890Z,99309.19
2018-02-14T12:29:11.514Z,99316.30
2018-02-14T12:31:39.089Z,99314.63
2018-02-14T12:34:06.712Z,99317.77
2018-02-14T12:36:34.279Z,99321.03
2018-02-14T12:39:01.905Z,99318.63
2018-02-14T12:41:29.536Z,99323.63
2018-02-14T12:43:57.098Z,99332.52
2018-02-14T12:46:24.731Z,99341.39
2018-02-14T12:48:52.295Z,99350.20
2018-02-14T12:51:19.908Z,99345.32
2018-02-14T12:53:47.563Z,99345.25
2018-02-14T12:56:15.178Z,99343.16
2018-02-14T12:58:42.821Z,99342.61
2018-02-14T13:01:10.390Z,99348.13
2018-02-14T13:03:38.077Z,99355.00
2018-02-14T13:06:05.638Z,99357.01
2018-02-14T13:08:33.183Z,99361.42
2018-02-14T13:11:00.815Z,99367.73
2018-02-14T13:13:28.387Z,99376.50
2018-02-14T13:15:55.984Z,99378.67
2018-02-14T13:18:23.540Z,99377.61
2018-02-14T13:20:51.178Z,99385.81
2018-02-14T13:23:18.762Z,99384.06
2018-02-14T13:25:46.390Z,99387.02
2018-02-14T13:28:13.954Z,99393.58
2018-02-14T13:30:41.570Z,99378.87
2018-02-14T13:33:09.150Z,99385.83
2018-02-14T13:35:36.726Z,99392.52
2018-02-14T13:38:04.401Z,99388.70
2018-02-14T13:40:34.490Z,99391.30
2018-02-14T13:43:02.058Z,99386.66
2018-02-14T13:45:29.747Z,99386.37
2018-02-14T13:47:59.697Z,99393.02
2018-02-14T13:50:27.342Z,99385.67
2018-02-14T13:52:54.947Z,99390.84
2018-02-14T13:55:22.510Z,99394.34
2018-02-14T13:57:50.070Z,99398.96
2018-02-14T14:00:17.647Z,99398.71
2018-02-14T14:02:45.223Z,99401.28
2018-02-14T14:05:12.813Z,99405.66
2018-02-14T14:07:40.362Z,99411.33
2018-02-14T14:10:08.038Z,99414.47
2018-02-14T14:12:35.659Z,99416.16
2018-02-14T14:15:03.233Z,99420.42
2018-02-14T14:17:30.796Z,99418.55
2018-02-14T14:19:58.351Z,99419.70
2018-02-14T14:22:25.982Z,99424.80
2018-02-14T14:24:53.546Z,99432.64
2018-02-14T14:27:21.186Z,99433.83
2018-02-14T14:29:49.758Z,99437.55
2018-02-14T14:32:17.378Z,99444.41
2018-02-14T14:34:45.704Z,99441.94
2018-02-14T14:37:14.192Z,99453.14
2018-02-14T14:39:41.780Z,99458.64
2018-02-14T14:42:09.952Z,99460.56
2018-02-14T14:44:37.573Z,99465.53
2018-02-14T14:47:06.166Z,99467.49
2018-02-14T14:49:33.740Z,99470.67
2018-02-14T14:52:01.321Z,99472.63
2018-02-14T14:54:30.666Z,99480.33
2018-02-14T14:56:58.243Z,99484.45
2018-02-14T14:59:25.867Z,99477.84
2018-02-14T15:01:53.433Z,99485.23
2018-02-14T15:04:21.001Z,99495.75
2018-02-14T15:06:48.562Z,99500.30
2018-02-14T15:09:16.196Z,99494.84
2018-02-14T15:11:43.767Z,99496.94
2018-02-14T15:14:11.390Z,99506.39
2018-02-14T15:16:38.965Z,99510.48
2018-02-14T15:19:06.534Z,99522.31
2018-02-14T15:21:34.162Z,99523.05
2018-02-14T15:24:01.729Z,99521.91
2018-02-14T15:26:29.346Z,99525.30
2018-02-14T15:28:56.914Z,99527.16
2018-02-14T15:31:25.746Z,99535.77
2018-02-14T15:33:53.317Z,99533.67
2018-02-14T15:36:20.874Z,99545.30
2018-02-14T15:38:48.441Z,99549.13
2018-02-14T15:41:16.044Z,99548.79
2018-02-14T15:43:43.726Z,99555.50
2018-02-14T15:46:11.384Z,99557.33
2018-02-14T15:48:38.954Z,99554.25
2018-02-14T15:51:06.587Z,99555.56
2018-02-14T15:53:34.163Z,99559.00
2018-02-14T15:56:01.738Z,99570.39
2018-02-14T15:58:29.369Z,99567.95
2018-02-14T16:00:56.990Z,99576.97
2018-02-14T16:03:24.622Z,99584.11
2018-02-14T16:05:52.186Z,99581.81
2018-02-14T16:08:19.754Z,99582.24
2018-02-14T16:10:47.332Z,99592.09
2018-02-14T16:13:15.011Z,99590.42
2018-02-14T16:15:42.634Z,99598.73
2018-02-14T16:18:10.347Z,99603.07
2018-02-14T16:20:37.933Z,99603.58
2018-02-14T16:23:05.517Z,99605.73
2018-02-14T16:25:33.108Z,99613.85
2018-02-14T16:28:00.701Z,99607.63
2018-02-14T16:30:28.340Z,99620.14
2018-02-14T16:32:55.898Z,99620.14
2018-02-14T16:35:23.556Z,99623.52
2018-02-14T16:37:51.129Z,99630.31
2018-02-14T16:40:18.750Z,99637.20
2018-02-14T16:42:46.320Z,99634.83
2018-02-14T16:45:13.886Z,99635.55
2018-02-14T16:47:41.523Z,99642.39
2018-02-14T16:50:09.162Z,99649.23
2018-02-14T16:52:36.808Z,99650.78
2018-02-14T16:55:04.388Z,99660.16
2018-02-14T16:57:32.030Z,99650.98
2018-02-14T17:00:00.023Z,99657.36
2018-02-14T17:02:27.668Z,99660.94
2018-02-14T17:04:55.245Z,99665.17
2018-02-14T17:07:22.811Z,99663.52
2018-02-14T17:09:50.431Z,99674.28
2018-02-14T17:12:18.052Z,99678.70
2018-02-14T17:14:45.619Z,99671.63
2018-02-14T17:17:13.198Z,99680.21
2018-02-14T17:19:40.776Z,99682.89
2018-02-14T17:22:08.359Z,99683.80
2018-02-14T17:24:35.923Z,99680.58
2018-02-14T17:27:03.597Z,99681.52
2018-02-14T17:29:31.165Z,99683.39
2018-02-14T17:31:58.742Z,99689.33
2018-02-14T17:34:26.322Z,99686.38
2018-02-14T17:36:53.884Z,99692.48
2018-02-14T17:39:21.463Z,99696.66
2018-02-14T17:41:49.048Z,99689.83
2018-02-14T17:44:16.723Z,99695.55
2018-02-14T17:46:44.359Z,99696.47
2018-02-14T17:49:11.903Z,99700.54
2018-02-14T17:51:39.519Z,99705.02
2018-02-14T17:54:07.105Z,99703.97
2018-02-14T17:56:34.686Z,99706.67
2018-02-14T17:59:02.260Z,99709.00
2018-02-14T18:01:29.917Z,99708.65
2018-02-14T18:03:57.553Z,99709.69
2018-02-14T18:06:25.175Z,99715.23
2018-02-14T18:08:52.810Z,99716.42
2018-02-14T18:11:20.392Z,99721.61
2018-02-14T18:13:47.982Z,99734.75
2018-02-14T18:16:15.555Z,99734.97
2018-02-14T18:18:44.290Z,99722.14
2018-02-14T18:21:11.860Z,99728.03
2018-02-14T18:23:39.434Z,99728.52
2018-02-14T18:26:07.006Z,99726.08
2018-02-14T18:28:34.574Z,99727.01
2018-02-14T18:31:02.197Z,99725.72
2018-02-14T18:33:29.757Z,99726.36
2018-02-14T18:35:57.426Z,99723.70
2018-02-14T18:38:25.053Z,99726.78
2018-02-14T18:40:52.670Z,99735.34
2018-02-14T18:43:20.251Z,99734.08
2018-02-14T18:45:47.814Z,99745.81
2018-02-14T18:48:15.446Z,99749.96
2018-02-14T18:50:43.074Z,99746.23
2018-02-14T18:53:10.732Z,99754.68
2018-02-14T18:55:38.291Z,99751.17
2018-02-14T18:58:05.906Z,99755.88
2018-02-14T19:00:33.550Z,99756.43
2018-02-14T19:03:01.130Z,99757.92
2018-02-14T19:05:28.702Z,99762.39
2018-02-14T19:07:56.330Z,99759.24
2018-02-14T19:10:24.018Z,99767.77
2018-02-14T19:12:51.592Z,99772.38
2018-02-14T19:15:19.169Z,99772.19
2018-02-14T19:17:46.740Z,99774.48
2018-02-14T19:20:14.311Z,99769.95
2018-02-14T19:22:41.982Z,99778.55
2018-02-14T19:25:09.555Z,99777.77
2018-02-14T19:27:37.254Z,99775.04
2018-02-14T19:30:04.862Z,99781.42
2018-02-14T19:32:32.435Z,99780.78
2018-02-14T19:35:00.017Z,99785.52
2018-02-14T19:37:27.582Z,99785.52
2018-02-14T19:39:55.263Z,99787.79
2018-02-14T19:42:22.896Z,99781.70
2018-02-14T19:44:50.465Z,99791.58
2018-02-14T19:47:18.056Z,99787.06
2018-02-14T19:49:45.622Z,99791.97
2018-02-14T19:52:13.244Z,99788.97
2018-02-14T19:54:40.878Z,99784.55
2018-02-14T19:57:08.450Z,99782.80
2018-02-14T19:59:36.085Z,99792.05
2018-02-14T20:02:03.714Z,99793.80
2018-02-14T20:04:31.395Z,99799.30
2018-02-14T20:06:58.968Z,99800.98
2018-02-14T20:09:26.622Z,99800.63
2018-02-14T20:11:54.266Z,99802.30
2018-02-14T20:14:21.816Z,99803.82
2018-02-14T20:16:49.503Z,99806.83
2018-02-14T20:19:17.048Z,99800.44
2018-02-14T20:21:44.609Z,99803.02
2018-02-14T20:24:12.200Z,99808.58
2018-02-14T20:26:39.801Z,99807.02
2018-02-14T20:29:07.438Z,99812.92
2018-02-14T20:31:35.059Z,99813.53
2018-02-14T20:34:02.617Z,99814.12
2018-02-14T20:36:30.186Z,99812.88
2018-02-14T20:38:57.750Z,99814.59
2018-02-14T20:41:25.366Z,99811.56
2018-02-14T20:43:52.990Z,99821.58
2018-02-14T20:46:20.622Z,99829.24
2018-02-14T20:48:48.294Z,99825.06
2018-02-14T20:51:15.864Z,99833.23
2018-02-14T20:53:43.442Z,99835.50
2018-02-14T20:56:11.006Z,99831.52
2018-02-14T20:58:38.622Z,99835.48
2018-02-14T21:01:06.190Z,99841.80
2018-02-14T21:03:33.754Z,99844.31
2018-02-14T21:06:01.323Z,99846.72
2018-02-14T21:08:28.942Z,99850.52
2018-02-14T21:10:56.497Z,99851.78
2018-02-14T21:13:24.064Z,99860.31
2018-02-14T21:15:51.677Z,99852.27
2018-02-14T21:18:19.253Z,99855.28
2018-02-14T21:20:46.868Z,99856.33
2018-02-14T21:23:14.447Z,99869.42
2018-02-14T21:25:42.059Z,99863.97
2018-02-14T21:28:09.639Z,99864.55
2018-02-14T21:30:37.330Z,99861.24
2018-02-14T21:33:04.968Z,99866.20
2018-02-14T21:35:32.586Z,99864.87
2018-02-14T21:38:01.071Z,99870.20
2018-02-14T21:40:28.644Z,99879.98
2018-02-14T21:42:56.207Z,99877.58
2018-02-14T21:45:23.785Z,99883.86
2018-02-14T21:47:51.359Z,99881.02
2018-02-14T21:50:18.970Z,99879.87
2018-02-14T21:52:46.534Z,99877.45
2018-02-14T21:55:14.172Z,99889.84
2018-02-14T21:57:41.811Z,99882.78
2018-02-14T22:00:09.391Z,99888.63
2018-02-14T22:02:36.971Z,99881.18
2018-02-14T22:05:04.534Z,99891.57
2018-02-14T22:07:32.158Z,99890.18
2018-02-14T22:09:59.715Z,99892.80
2018-02-14T22:12:27.277Z,99892.24
2018-02-14T22:14:54.846Z,99887.18
2018-02-14T22:17:22.463Z,99884.82
2018-02-14T22:19:50.145Z,99883.86
2018-02-14T22:22:17.777Z,99890.80
2018-02-14T22:24:45.469Z,99875.95
2018-02-14T22:27:13.128Z,99882.77
2018-02-14T22:29:40.700Z,99873.11
2018-02-14T22:32:08.327Z,99876.92
2018-02-14T22:34:35.894Z,99882.95
2018-02-14T22:37:03.478Z,99891.45
2018-02-14T22:39:31.050Z,99895.58
2018-02-14T22:41:58.673Z,99892.07
2018-02-14T22:44:26.244Z,99891.94
2018-02-14T22:46:53.862Z,99890.20
2018-02-14T22:49:21.486Z,99890.55
2018-02-14T22:51:49.042Z,99893.45
2018-02-14T22:54:16.605Z,99897.33
2018-02-14T22:56:44.227Z,99910.27
2018-02-14T22:59:11.847Z,99906.77
2018-02-14T23:01:39.465Z,99911.36
2018-02-14T23:04:07.092Z,99909.01
2018-02-14T23:06:34.664Z,99925.06
2018-02-14T23:09:02.228Z,99924.77
2018-02-14T23:11:29.859Z,99925.98
2018-02-14T23:13:57.414Z,99928.23
2018-02-14T23:16:25.092Z,99928.21
2018-02-14T23:18:52.646Z,99926.97
2018-02-14T23:21:20.206Z,99934.69
2018-02-14T23:23:47.788Z,99929.23
2018-02-14T23:26:15.417Z,99933.22
2018-02-14T23:28:42.986Z,99928.36
2018-02-14T23:31:10.570Z,99944.50
2018-02-14T23:33:38.246Z,99945.68
2018-02-14T23:36:05.867Z,99940.41
2018-02-14T23:38:33.429Z,99943.84
2018-02-14T23:41:01.038Z,99939.22
2018-02-14T23:43:28.598Z,99944.11
2018-02-14T23:45:56.279Z,99948.11
2018-02-14T23:48:23.837Z,99946.95
2018-02-14T23:50:51.460Z,99949.89
2018-02-14T23:53:19.089Z,99950.79
2018-02-14T23:55:46.721Z,99963.37
2018-02-14T23:58:14.330Z,99960.80
